L'Astrolabe — FHZI — position and weather

sailwx.info

Track history (hours):
 
Tides and Currents Weather Stations Pressure Air Temp Water Temp Dewpoint Dewpoint Depression Visibility Wind Speed Wind Dir Waves Ship Positions

Oceanographic research ship L'Astrolabe (France)

Ship's website: http://www.ifremer.fr/ifrtp/pages/astrolabe.html

Detailed information on ship capabilities available from University of Delaware's Ocean Information Center.

Last reported at 2014-Nov-24 18:10 UTC. Time now 2014-Nov-24 20:18 UTC.
Position S 44°12' E 147°19'.

Length 65.5 m; beam 13.1 m; draft 4.7 m.

Type: Other ship. MMSI: 227152000.

Date/timePositionNaut miles runAvg speedWind from/ knotsBaromVisibWave heightAir tempDewpointWater temp
2014-Nov-24 18:10S 44°12' E 147°19'1 6.2
2014-Nov-24 18:00S 44°12' E 147°18'816.7 260 / 41996.9 11.5 9.613.6
2014-Nov-24 17:31S 44°20' E 147°19'4 7.7
2014-Nov-24 17:00S 44°24' E 147°18'713.5 260 / 36995.9 11.3 8.713.9
2014-Nov-24 16:28S 44°31' E 147°17'1110.5
2014-Nov-24 15:25S 44°42' E 147°15'1617.7
2014-Nov-24 14:32S 44°58' E 147°12'20 8.5
2014-Nov-24 12:12S 45°17' E 147°11'1 4.9
2014-Nov-24 12:00S 45°18' E 147°12'613.4 300 / 23996.6 12.8 8.113.7
2014-Nov-24 11:33S 45°24' E 147°11'611.0
2014-Nov-24 11:00S 45°30' E 147°12'510.4 300 / 21997.4 13.1 8.414.7
2014-Nov-24 10:33S 45°35' E 147°11'1110.8
2014-Nov-24 09:30S 45°46' E 147°11'917.1
2014-Nov-24 09:00S 45°54' E 147°06'6 6.0 320 / 21997.6 12.3 9.111.6
2014-Nov-24 08:00S 46°00' E 147°06'2412.0 320 / 20997.7 12.0 9.811.4
2014-Nov-24 06:00S 46°24' E 147°06'3010.1 310 / 15997.9 11.4 9.111.1
2014-Nov-24 03:00S 46°54' E 147°00'1212.0 340 / 30998.7 12.011.811.1
2014-Nov-24 02:00S 47°06' E 147°00'2412.2 350 / 29999.1 11.611.410.2
2014-Nov-24 00:00S 47°30' E 146°54'1212.0 360 / 241000.7 11.211.2 9.7
2014-Nov-23 23:00S 47°42' E 146°54'18 9.0 010 / 201001.4 10.910.9 9.8
2014-Nov-23 21:00S 48°00' E 146°54'1312.7 350 / 201003.1 10.410.4 9.3
2014-Nov-23 20:00S 48°12' E 146°48'2412.0 350 / 171002.6 10.110.1 9.3
2014-Nov-23 18:00S 48°36' E 146°48'1212.0 320 / 191002.1 10.010.0 9.2
2014-Nov-23 17:00S 48°48' E 146°48'2412.0 320 / 161002.0 9.7 9.7 9.1
2014-Nov-23 15:00S 49°12' E 146°48'6 6.0 310 / 161002.2 9.8 9.3 9.5
2014-Nov-23 14:00S 49°18' E 146°48'2412.2 290 / 171001.6 9.9 8.4 9.4
2014-Nov-23 12:00S 49°42' E 146°42'1212.0 280 / 151000.5 9.7 8.0 9.0
2014-Nov-23 11:00S 49°54' E 146°42'2412.0 290 / 17999.4 9.8 8.0 9.3
2014-Nov-23 09:00S 50°18' E 146°42'1212.0 270 / 15997.1 10.0 7.6 9.3
2014-Nov-23 08:00S 50°30' E 146°42'18 9.2 260 / 14996.1 9.7 7.1 9.3
2014-Nov-23 06:00S 50°48' E 146°36'1212.0 290 / 21994.6 9.9 7.2 9.1
2014-Nov-23 05:00S 51°00' E 146°36'2412.1 290 / 21994.4 9.4 7.3 8.4
2014-Nov-23 03:00S 51°24' E 146°30'1212.0 310 / 22993.3 8.7 7.5 7.3
2014-Nov-23 02:00S 51°36' E 146°30'2412.1 320 / 22993.3 8.2 7.9 6.5
2014-Nov-23 00:00S 52°00' E 146°24'1212.0 340 / 20992.3 7.3 5.9
2014-Nov-22 23:00S 52°12' E 146°24'2412.1 330 / 19992.4 6.8 5.5
2014-Nov-22 21:00S 52°36' E 146°18'1212.0 320 / 17991.3 6.3 5.4
2014-Nov-22 20:00S 52°48' E 146°18'2412.0 320 / 18990.4 6.3 5.4
2014-Nov-22 18:00S 53°12' E 146°18'7 7.0 310 / 20988.7 5.8 5.6
2014-Nov-22 17:00S 53°18' E 146°12'2412.0 310 / 21988.7 5.2 5.4
2014-Nov-22 15:00S 53°42' E 146°12'3612.1 320 / 20987.8 3.9 3.3
2014-Nov-22 12:00S 54°18' E 146°06'1212.5 070 / 14988.1 4.6 3.6
2014-Nov-22 11:00S 54°30' E 146°00'3612.1 090 / 21988.9 4.6 3.4
2014-Nov-22 08:00S 55°06' E 145°54'2412.1 100 / 16990.9 3.0 2.4
2014-Nov-22 06:00S 55°30' E 145°48'1212.0 080 / 12992.4 1.8 1.4
2014-Nov-22 05:00S 55°42' E 145°48'12 6.2 090 / 11992.7 1.2 1.1
2014-Nov-22 03:00S 55°54' E 145°42'36 9.0 070 / 14993.3 0.5 1.3
2014-Nov-21 23:00S 56°30' E 145°36'18 9.1 350 / 9995.0 1.0-0.9 1.4
2014-Nov-21 21:00S 56°48' E 145°30'24 8.1 240 / 7994.9 0.8-2.8 0.8
2014-Nov-21 18:00S 57°12' E 145°24'6 6.0 240 / 13993.9 0.1-1.1 0.4
2014-Nov-21 17:00S 57°18' E 145°24'12 6.2 240 / 14993.7 -0.3-0.6 0.7
2014-Nov-21 15:00S 57°30' E 145°30'1212.0 240 / 16992.8 0.4-0.8 0.9
2014-Nov-21 14:00S 57°42' E 145°30'11 5.7 250 / 18992.1 0.4-0.2 1.0
2014-Nov-21 12:00S 57°48' E 145°48'1212.4 250 / 12990.7 0.3 0.3 0.9
2014-Nov-21 11:00S 58°00' E 145°54'18 9.1 270 / 12990.5 0.3-0.3 0.9
2014-Nov-21 09:00S 58°18' E 146°00'7 6.8 320 / 14989.8 0.8 0.3 0.1
2014-Nov-21 08:00S 58°24' E 146°06'24 8.1 330 / 11989.5 0.7-0.3 0.2
2014-Nov-21 05:00S 58°48' E 146°12'12 6.0 360 / 9989.0 0.8 0.5 0.4
2014-Nov-21 03:00S 59°00' E 146°12'1212.0 070 / 18988.9 -0.2-1.1 0.6
2014-Nov-21 02:00S 59°12' E 146°12'12 6.2 070 / 19988.9 -0.5-2.2 0.3
2014-Nov-21 00:00S 59°24' E 146°18'6 6.0 070 / 20988.9 -0.5-2.8 0.6
2014-Nov-20 23:00S 59°30' E 146°18'3612.0 070 / 21989.2 -0.6-2.8 0.7
2014-Nov-20 20:00S 60°06' E 146°12'3612.0 080 / 17988.7 -0.9-4.3 0.2
2014-Nov-20 17:00S 60°42' E 146°06'2412.0 070 / 16988.4 -1.3-4.5 0.3
2014-Nov-20 15:00S 61°06' E 146°06'1212.0 080 / 14988.2 -1.5-5.4-0.0
2014-Nov-20 14:00S 61°18' E 146°06'2412.1 090 / 12988.6 -2.0-4.9-0.0
2014-Nov-20 12:00S 61°42' E 146°00'1212.0 070 / 12988.2 -2.5-4.8-0.8
2014-Nov-20 11:00S 61°54' E 146°00'2412.1 100 / 14987.9 -2.3-4.9-1.6
2014-Nov-20 09:00S 62°18' E 145°54'1514.6 100 / 11987.6 -2.6-6.9-1.6
2014-Nov-20 08:00S 62°30' E 145°36'2311.3 080 / 13987.2 -2.6-8.5-1.7
2014-Nov-20 06:00S 62°48' E 145°06'6 6.0 090 / 13986.8 -2.7-7.1-1.6
2014-Nov-20 05:00S 62°54' E 145°06'18 9.1 090 / 14986.8 -2.6-7.2-1.6
2014-Nov-20 03:00S 63°12' E 145°00'6 6.0 070 / 11986.5 -2.8-6.9-1.6
2014-Nov-20 02:00S 63°18' E 145°00'12 6.0 080 / 11986.3 -2.8-7.2-1.6
2014-Nov-20 00:00S 63°30' E 145°00'1212.0 060 / 9985.9 -3.3-6.6-1.6
2014-Nov-19 23:00S 63°42' E 145°00'2512.6 070 / 11985.7 -3.2-7.7-1.7
2014-Nov-19 21:00S 64°06' E 145°18'7 6.5 060 / 9985.7 -3.7-7.9-1.8
2014-Nov-19 20:00S 64°12' E 145°24'21 6.9 080 / 9985.4 -3.9-7.6-1.8
2014-Nov-19 17:00S 64°30' E 145°48'12 6.1 040 / 8985.1 -4.5-7.5-1.8
2014-Nov-19 15:00S 64°42' E 145°54'7 2.2 050 / 8985.0 -4.9-7.7-1.8
2014-Nov-19 12:00S 64°48' E 146°00'0 0.0 310 / 3985.9 -4.9-9.5-1.8
2014-Nov-19 11:00S 64°48' E 146°00'12 6.0 290 / 3986.0 -5.6-9.9-1.8
2014-Nov-19 09:00S 65°00' E 146°00'6 6.0 270 / 6985.9 -5.3-9.6-1.8
2014-Nov-19 08:00S 65°06' E 146°00'19 9.3 250 / 10986.0 -5.1-9.8-1.8
2014-Nov-19 06:00S 65°24' E 145°48'25 8.3 250 / 12986.3 -5.5-11.1-1.8
2014-Nov-19 03:00S 65°24' E 144°48'7 7.5 260 / 15987.2 -5.8-10.2-1.8
2014-Nov-19 02:00S 65°24' E 144°30'2110.4 270 / 13987.3 -4.4-9.7-1.8
2014-Nov-19 00:00S 65°18' E 143°42'1010.0 280 / 12987.8 -5.9-11.2-1.8
2014-Nov-18 23:00S 65°18' E 143°18'15 7.5 270 / 11987.9 -5.2-9.5-1.8
2014-Nov-18 21:00S 65°18' E 142°42'8 7.5 300 / 13988.2 -6.9-11.4-1.8
2014-Nov-18 20:00S 65°18' E 142°24'39 7.9 290 / 12988.3 -6.7-11.1-1.8
2014-Nov-18 15:00S 65°30' E 140°54'8 7.8 280 / 13989.2 -6.4-10.9-1.9
2014-Nov-18 14:00S 65°36' E 140°42'12 5.8 280 / 9989.8 -7.0-11.2-1.9
2014-Nov-18 12:00S 65°42' E 140°18'2 2.5 220 / 4990.3 -7.8-11.8-1.9
2014-Nov-18 11:00S 65°42' E 140°12'0 0.0 210 / 7990.2 -8.0-12.4-1.9
2014-Nov-18 09:00S 65°42' E 140°12'2 2.5 180 / 7990.0 -7.9-12.3-1.9
2014-Nov-18 08:00S 65°42' E 140°06'8 3.9 180 / 8990.2 -8.0-12.0-1.9
2014-Nov-18 06:00S 65°36' E 139°54'1313.0 150 / 10990.4 -7.8-11.7-1.9
2014-Nov-18 05:00S 65°48' E 139°42'19 9.3 160 / 10990.5 -8.0-12.3-1.8
2014-Nov-18 03:00S 66°06' E 139°30'0 0.0 130 / 9991.1 -8.5-14.3-1.9
2014-Nov-18 02:00S 66°06' E 139°30'0 0.0 140 / 10991.0 -9.6-14.6-1.9
2014-Nov-18 00:00S 66°06' E 139°30'0 0.0 150 / 13991.0 -11.3-16.0-1.9
2014-Nov-17 23:00S 66°06' E 139°30'0 0.0 150 / 13991.3 -12.3-17.3-1.9
2014-Nov-17 21:00S 66°06' E 139°30'0 0.0 160 / 13990.6 -16.7-19.9-1.9
2014-Nov-17 20:00S 66°06' E 139°30'0 0.0 150 / 13990.2 -19.6-22.7-1.9
2014-Nov-17 18:00S 66°06' E 139°30'0 0.0 120 / 14989.7 -21.9-1.9
2014-Nov-17 17:00S 66°06' E 139°30'0 0.0 100 / 14989.2 -16.2-18.4-1.9
2014-Nov-17 15:00S 66°06' E 139°30'0 0.0 110 / 10987.8 -12.4-15.1-1.9
2014-Nov-17 14:00S 66°06' E 139°30'0 0.0 140 / 4987.6 -14.8-18.6-1.9
2014-Nov-17 12:00S 66°06' E 139°30'0 0.0 170 / 11987.1 -11.6-15.3-1.9
2014-Nov-17 09:00S 66°06' E 139°30'0 0.0 150 / 9986.1 -10.3-13.6-1.9
2014-Nov-17 08:00S 66°06' E 139°30'0 0.0 150 / 10986.0 -9.4-13.0-1.8
2014-Nov-17 06:00S 66°06' E 139°30'0 0.0 110 / 13985.3 -8.7-13.7-1.9
2014-Nov-17 05:00S 66°06' E 139°30'0 0.0 110 / 13985.1 -8.2-15.6-1.9
2014-Nov-17 03:00S 66°06' E 139°30'0 0.0 120 / 13984.8 -8.6-13.7-1.9
2014-Nov-17 02:00S 66°06' E 139°30'0 0.0 130 / 13984.6 -9.4-15.7-1.9
2014-Nov-17 00:00S 66°06' E 139°30'0 0.0 120 / 11984.0 -10.8-15.7-1.9
2014-Nov-16 23:00S 66°06' E 139°30'0 0.0 120 / 13983.6 -17.0-1.9
2014-Nov-16 20:00S 66°06' E 139°30'0 0.0 130 / 13982.7 -14.7-19.2-1.9
2014-Nov-16 18:00S 66°06' E 139°30'0 0.0 130 / 13982.6 -16.6-1.9
2014-Nov-16 17:00S 66°06' E 139°30'0 0.0 130 / 15982.4 -12.2-15.3-1.9
2014-Nov-16 12:00S 66°06' E 139°30'0 0.0 120 / 13980.3 -12.6-15.2-1.9
2014-Nov-16 09:00S 66°06' E 139°30'0 0.0 130 / 7978.1 -11.7-15.2-1.9
2014-Nov-16 06:00S 66°06' E 139°30'0 0.0 170 / 5977.2 -9.0-15.2-1.9
2014-Nov-16 05:00S 66°06' E 139°30'0 0.0 210 / 6977.4 -8.4-13.6-1.9
2014-Nov-16 03:00S 66°06' E 139°30'0 0.0 250 / 10977.7 -7.5-14.3-1.9
2014-Nov-16 00:00S 66°06' E 139°30'0 0.0 280 / 11978.5 -8.2-13.9-1.9
2014-Nov-15 21:00S 66°06' E 139°30'0 0.0 260 / 12979.7 -8.4-13.3-1.9
2014-Nov-15 20:00S 66°06' E 139°30'0 0.0 240 / 12979.9 -9.5-14.0-1.9
2014-Nov-15 18:00S 66°06' E 139°30'0 0.0 220 / 11980.9 -17.4-1.9
2014-Nov-15 17:00S 66°06' E 139°30'0 0.0 220 / 8981.6 -16.8-21.1-1.9
2014-Nov-15 15:00S 66°06' E 139°30'0 0.0 200 / 7982.9 -12.4-20.3-1.9
2014-Nov-15 14:00S 66°06' E 139°30'0 0.0 190 / 9983.2 -13.6-18.1-1.9
2014-Nov-15 12:00S 66°06' E 139°30'0 0.0 170 / 12984.0 -13.8-17.4-1.9
2014-Nov-15 11:00S 66°06' E 139°30'0 0.0 170 / 13984.4 -13.7-16.8-1.9
2014-Nov-15 09:00S 66°06' E 139°30'0 0.0 180 / 4984.6 -9.8-14.0-1.9
2014-Nov-15 08:00S 66°06' E 139°30'0 0.0 090 / 3984.8 -9.2-13.4-1.9
2014-Nov-15 06:00S 66°06' E 139°30'0 0.0 110 / 12984.8 -9.3-14.1-1.9
2014-Nov-15 05:00S 66°06' E 139°30'0 0.0 100 / 13984.8 -9.4-14.9-1.9
2014-Nov-15 03:00S 66°06' E 139°30'0 0.0 110 / 18985.5 -9.9-15.8-1.9
2014-Nov-15 02:00S 66°06' E 139°30'0 0.0 110 / 21985.8 -10.4-15.6-1.9
2014-Nov-15 00:00S 66°06' E 139°30'0 0.0 120 / 22986.2 -11.0-16.8-1.5
2014-Nov-14 21:00S 66°06' E 139°30'0 0.0 120 / 21986.5 -13.6-18.8-1.5
2014-Nov-14 20:00S 66°06' E 139°30'   110 / 23986.6 -14.1-19.2-1.5
Track history (hours):
 
Tides and Currents Weather Stations Pressure Air Temp Water Temp Dewpoint Dewpoint Depression Visibility Wind Speed Wind Dir Waves Ship Positions

Oceanographic research ship L'Astrolabe (France)

Ship's website: http://www.ifremer.fr/ifrtp/pages/astrolabe.html

Detailed information on ship capabilities available from University of Delaware's Ocean Information Center.

Last reported at 2014-Nov-24 18:10 UTC. Time now 2014-Nov-24 20:18 UTC.
Position S 44°12' E 147°19'.

Length 65.5 m; beam 13.1 m; draft 4.7 m.

Type: Other ship. MMSI: 227152000.

Date/timePositionNaut miles runAvg speedWind from/ knotsBaromVisibWave heightAir tempDewpointWater temp
2014-Nov-24 18:10S 44°12' E 147°19'1 6.2
2014-Nov-24 18:00S 44°12' E 147°18'816.7 260 / 41996.9 11.5 9.613.6
2014-Nov-24 17:31S 44°20' E 147°19'4 7.7
2014-Nov-24 17:00S 44°24' E 147°18'713.5 260 / 36995.9 11.3 8.713.9
2014-Nov-24 16:28S 44°31' E 147°17'1110.5
2014-Nov-24 15:25S 44°42' E 147°15'1617.7
2014-Nov-24 14:32S 44°58' E 147°12'20 8.5
2014-Nov-24 12:12S 45°17' E 147°11'1 4.9
2014-Nov-24 12:00S 45°18' E 147°12'613.4 300 / 23996.6 12.8 8.113.7
2014-Nov-24 11:33S 45°24' E 147°11'611.0
2014-Nov-24 11:00S 45°30' E 147°12'510.4 300 / 21997.4 13.1 8.414.7
2014-Nov-24 10:33S 45°35' E 147°11'1110.8
2014-Nov-24 09:30S 45°46' E 147°11'917.1
2014-Nov-24 09:00S 45°54' E 147°06'6 6.0 320 / 21997.6 12.3 9.111.6
2014-Nov-24 08:00S 46°00' E 147°06'2412.0 320 / 20997.7 12.0 9.811.4
2014-Nov-24 06:00S 46°24' E 147°06'3010.1 310 / 15997.9 11.4 9.111.1
2014-Nov-24 03:00S 46°54' E 147°00'1212.0 340 / 30998.7 12.011.811.1
2014-Nov-24 02:00S 47°06' E 147°00'2412.2 350 / 29999.1 11.611.410.2
2014-Nov-24 00:00S 47°30' E 146°54'1212.0 360 / 241000.7 11.211.2 9.7
2014-Nov-23 23:00S 47°42' E 146°54'18 9.0 010 / 201001.4 10.910.9 9.8
2014-Nov-23 21:00S 48°00' E 146°54'1312.7 350 / 201003.1 10.410.4 9.3
2014-Nov-23 20:00S 48°12' E 146°48'2412.0 350 / 171002.6 10.110.1 9.3
2014-Nov-23 18:00S 48°36' E 146°48'1212.0 320 / 191002.1 10.010.0 9.2
2014-Nov-23 17:00S 48°48' E 146°48'2412.0 320 / 161002.0 9.7 9.7 9.1
2014-Nov-23 15:00S 49°12' E 146°48'6 6.0 310 / 161002.2 9.8 9.3 9.5
2014-Nov-23 14:00S 49°18' E 146°48'2412.2 290 / 171001.6 9.9 8.4 9.4
2014-Nov-23 12:00S 49°42' E 146°42'1212.0 280 / 151000.5 9.7 8.0 9.0
2014-Nov-23 11:00S 49°54' E 146°42'2412.0 290 / 17999.4 9.8 8.0 9.3
2014-Nov-23 09:00S 50°18' E 146°42'1212.0 270 / 15997.1 10.0 7.6 9.3
2014-Nov-23 08:00S 50°30' E 146°42'18 9.2 260 / 14996.1 9.7 7.1 9.3
2014-Nov-23 06:00S 50°48' E 146°36'1212.0 290 / 21994.6 9.9 7.2 9.1
2014-Nov-23 05:00S 51°00' E 146°36'2412.1 290 / 21994.4 9.4 7.3 8.4
2014-Nov-23 03:00S 51°24' E 146°30'1212.0 310 / 22993.3 8.7 7.5 7.3
2014-Nov-23 02:00S 51°36' E 146°30'2412.1 320 / 22993.3 8.2 7.9 6.5
2014-Nov-23 00:00S 52°00' E 146°24'1212.0 340 / 20992.3 7.3 5.9
2014-Nov-22 23:00S 52°12' E 146°24'2412.1 330 / 19992.4 6.8 5.5
2014-Nov-22 21:00S 52°36' E 146°18'1212.0 320 / 17991.3 6.3 5.4
2014-Nov-22 20:00S 52°48' E 146°18'2412.0 320 / 18990.4 6.3 5.4
2014-Nov-22 18:00S 53°12' E 146°18'7 7.0 310 / 20988.7 5.8 5.6
2014-Nov-22 17:00S 53°18' E 146°12'2412.0 310 / 21988.7 5.2 5.4
2014-Nov-22 15:00S 53°42' E 146°12'3612.1 320 / 20987.8 3.9 3.3
2014-Nov-22 12:00S 54°18' E 146°06'1212.5 070 / 14988.1 4.6 3.6
2014-Nov-22 11:00S 54°30' E 146°00'3612.1 090 / 21988.9 4.6 3.4
2014-Nov-22 08:00S 55°06' E 145°54'2412.1 100 / 16990.9 3.0 2.4
2014-Nov-22 06:00S 55°30' E 145°48'1212.0 080 / 12992.4 1.8 1.4
2014-Nov-22 05:00S 55°42' E 145°48'12 6.2 090 / 11992.7 1.2 1.1
2014-Nov-22 03:00S 55°54' E 145°42'36 9.0 070 / 14993.3 0.5 1.3
2014-Nov-21 23:00S 56°30' E 145°36'18 9.1 350 / 9995.0 1.0-0.9 1.4
2014-Nov-21 21:00S 56°48' E 145°30'24 8.1 240 / 7994.9 0.8-2.8 0.8
2014-Nov-21 18:00S 57°12' E 145°24'6 6.0 240 / 13993.9 0.1-1.1 0.4
2014-Nov-21 17:00S 57°18' E 145°24'12 6.2 240 / 14993.7 -0.3-0.6 0.7
2014-Nov-21 15:00S 57°30' E 145°30'1212.0 240 / 16992.8 0.4-0.8 0.9
2014-Nov-21 14:00S 57°42' E 145°30'11 5.7 250 / 18992.1 0.4-0.2 1.0
2014-Nov-21 12:00S 57°48' E 145°48'1212.4 250 / 12990.7 0.3 0.3 0.9
2014-Nov-21 11:00S 58°00' E 145°54'18 9.1 270 / 12990.5 0.3-0.3 0.9
2014-Nov-21 09:00S 58°18' E 146°00'7 6.8 320 / 14989.8 0.8 0.3 0.1
2014-Nov-21 08:00S 58°24' E 146°06'24 8.1 330 / 11989.5 0.7-0.3 0.2
2014-Nov-21 05:00S 58°48' E 146°12'12 6.0 360 / 9989.0 0.8 0.5 0.4
2014-Nov-21 03:00S 59°00' E 146°12'1212.0 070 / 18988.9 -0.2-1.1 0.6
2014-Nov-21 02:00S 59°12' E 146°12'12 6.2 070 / 19988.9 -0.5-2.2 0.3
2014-Nov-21 00:00S 59°24' E 146°18'6 6.0 070 / 20988.9 -0.5-2.8 0.6
2014-Nov-20 23:00S 59°30' E 146°18'3612.0 070 / 21989.2 -0.6-2.8 0.7
2014-Nov-20 20:00S 60°06' E 146°12'3612.0 080 / 17988.7 -0.9-4.3 0.2
2014-Nov-20 17:00S 60°42' E 146°06'2412.0 070 / 16988.4 -1.3-4.5 0.3
2014-Nov-20 15:00S 61°06' E 146°06'1212.0 080 / 14988.2 -1.5-5.4-0.0
2014-Nov-20 14:00S 61°18' E 146°06'2412.1 090 / 12988.6 -2.0-4.9-0.0
2014-Nov-20 12:00S 61°42' E 146°00'1212.0 070 / 12988.2 -2.5-4.8-0.8
2014-Nov-20 11:00S 61°54' E 146°00'2412.1 100 / 14987.9 -2.3-4.9-1.6
2014-Nov-20 09:00S 62°18' E 145°54'1514.6 100 / 11987.6 -2.6-6.9-1.6
2014-Nov-20 08:00S 62°30' E 145°36'2311.3 080 / 13987.2 -2.6-8.5-1.7
2014-Nov-20 06:00S 62°48' E 145°06'6 6.0 090 / 13986.8 -2.7-7.1-1.6
2014-Nov-20 05:00S 62°54' E 145°06'18 9.1 090 / 14986.8 -2.6-7.2-1.6
2014-Nov-20 03:00S 63°12' E 145°00'6 6.0 070 / 11986.5 -2.8-6.9-1.6
2014-Nov-20 02:00S 63°18' E 145°00'12 6.0 080 / 11986.3 -2.8-7.2-1.6
2014-Nov-20 00:00S 63°30' E 145°00'1212.0 060 / 9985.9 -3.3-6.6-1.6
2014-Nov-19 23:00S 63°42' E 145°00'2512.6 070 / 11985.7 -3.2-7.7-1.7
2014-Nov-19 21:00S 64°06' E 145°18'7 6.5 060 / 9985.7 -3.7-7.9-1.8
2014-Nov-19 20:00S 64°12' E 145°24'21 6.9 080 / 9985.4 -3.9-7.6-1.8
2014-Nov-19 17:00S 64°30' E 145°48'12 6.1 040 / 8985.1 -4.5-7.5-1.8
2014-Nov-19 15:00S 64°42' E 145°54'7 2.2 050 / 8985.0 -4.9-7.7-1.8
2014-Nov-19 12:00S 64°48' E 146°00'0 0.0 310 / 3985.9 -4.9-9.5-1.8
2014-Nov-19 11:00S 64°48' E 146°00'12 6.0 290 / 3986.0 -5.6-9.9-1.8
2014-Nov-19 09:00S 65°00' E 146°00'6 6.0 270 / 6985.9 -5.3-9.6-1.8
2014-Nov-19 08:00S 65°06' E 146°00'19 9.3 250 / 10986.0 -5.1-9.8-1.8
2014-Nov-19 06:00S 65°24' E 145°48'25 8.3 250 / 12986.3 -5.5-11.1-1.8
2014-Nov-19 03:00S 65°24' E 144°48'7 7.5 260 / 15987.2 -5.8-10.2-1.8
2014-Nov-19 02:00S 65°24' E 144°30'2110.4 270 / 13987.3 -4.4-9.7-1.8
2014-Nov-19 00:00S 65°18' E 143°42'1010.0 280 / 12987.8 -5.9-11.2-1.8
2014-Nov-18 23:00S 65°18' E 143°18'15 7.5 270 / 11987.9 -5.2-9.5-1.8
2014-Nov-18 21:00S 65°18' E 142°42'8 7.5 300 / 13988.2 -6.9-11.4-1.8
2014-Nov-18 20:00S 65°18' E 142°24'39 7.9 290 / 12988.3 -6.7-11.1-1.8
2014-Nov-18 15:00S 65°30' E 140°54'8 7.8 280 / 13989.2 -6.4-10.9-1.9
2014-Nov-18 14:00S 65°36' E 140°42'12 5.8 280 / 9989.8 -7.0-11.2-1.9
2014-Nov-18 12:00S 65°42' E 140°18'2 2.5 220 / 4990.3 -7.8-11.8-1.9
2014-Nov-18 11:00S 65°42' E 140°12'0 0.0 210 / 7990.2 -8.0-12.4-1.9
2014-Nov-18 09:00S 65°42' E 140°12'2 2.5 180 / 7990.0 -7.9-12.3-1.9
2014-Nov-18 08:00S 65°42' E 140°06'8 3.9 180 / 8990.2 -8.0-12.0-1.9
2014-Nov-18 06:00S 65°36' E 139°54'1313.0 150 / 10990.4 -7.8-11.7-1.9
2014-Nov-18 05:00S 65°48' E 139°42'19 9.3 160 / 10990.5 -8.0-12.3-1.8
2014-Nov-18 03:00S 66°06' E 139°30'0 0.0 130 / 9991.1 -8.5-14.3-1.9
2014-Nov-18 02:00S 66°06' E 139°30'0 0.0 140 / 10991.0 -9.6-14.6-1.9
2014-Nov-18 00:00S 66°06' E 139°30'0 0.0 150 / 13991.0 -11.3-16.0-1.9
2014-Nov-17 23:00S 66°06' E 139°30'0 0.0 150 / 13991.3 -12.3-17.3-1.9
2014-Nov-17 21:00S 66°06' E 139°30'0 0.0 160 / 13990.6 -16.7-19.9-1.9
2014-Nov-17 20:00S 66°06' E 139°30'0 0.0 150 / 13990.2 -19.6-22.7-1.9
2014-Nov-17 18:00S 66°06' E 139°30'0 0.0 120 / 14989.7 -21.9-1.9
2014-Nov-17 17:00S 66°06' E 139°30'0 0.0 100 / 14989.2 -16.2-18.4-1.9
2014-Nov-17 15:00S 66°06' E 139°30'0 0.0 110 / 10987.8 -12.4-15.1-1.9
2014-Nov-17 14:00S 66°06' E 139°30'0 0.0 140 / 4987.6 -14.8-18.6-1.9
2014-Nov-17 12:00S 66°06' E 139°30'0 0.0 170 / 11987.1 -11.6-15.3-1.9
2014-Nov-17 09:00S 66°06' E 139°30'0 0.0 150 / 9986.1 -10.3-13.6-1.9
2014-Nov-17 08:00S 66°06' E 139°30'0 0.0 150 / 10986.0 -9.4-13.0-1.8
2014-Nov-17 06:00S 66°06' E 139°30'0 0.0 110 / 13985.3 -8.7-13.7-1.9
2014-Nov-17 05:00S 66°06' E 139°30'0 0.0 110 / 13985.1 -8.2-15.6-1.9
2014-Nov-17 03:00S 66°06' E 139°30'0 0.0 120 / 13984.8 -8.6-13.7-1.9
2014-Nov-17 02:00S 66°06' E 139°30'0 0.0 130 / 13984.6 -9.4-15.7-1.9
2014-Nov-17 00:00S 66°06' E 139°30'0 0.0 120 / 11984.0 -10.8-15.7-1.9
2014-Nov-16 23:00S 66°06' E 139°30'0 0.0 120 / 13983.6 -17.0-1.9
2014-Nov-16 20:00S 66°06' E 139°30'0 0.0 130 / 13982.7 -14.7-19.2-1.9
2014-Nov-16 18:00S 66°06' E 139°30'0 0.0 130 / 13982.6 -16.6-1.9
2014-Nov-16 17:00S 66°06' E 139°30'0 0.0 130 / 15982.4 -12.2-15.3-1.9
2014-Nov-16 12:00S 66°06' E 139°30'0 0.0 120 / 13980.3 -12.6-15.2-1.9
2014-Nov-16 09:00S 66°06' E 139°30'0 0.0 130 / 7978.1 -11.7-15.2-1.9
2014-Nov-16 06:00S 66°06' E 139°30'0 0.0 170 / 5977.2 -9.0-15.2-1.9
2014-Nov-16 05:00S 66°06' E 139°30'0 0.0 210 / 6977.4 -8.4-13.6-1.9
2014-Nov-16 03:00S 66°06' E 139°30'0 0.0 250 / 10977.7 -7.5-14.3-1.9
2014-Nov-16 00:00S 66°06' E 139°30'0 0.0 280 / 11978.5 -8.2-13.9-1.9
2014-Nov-15 21:00S 66°06' E 139°30'0 0.0 260 / 12979.7 -8.4-13.3-1.9
2014-Nov-15 20:00S 66°06' E 139°30'0 0.0 240 / 12979.9 -9.5-14.0-1.9
2014-Nov-15 18:00S 66°06' E 139°30'0 0.0 220 / 11980.9 -17.4-1.9
2014-Nov-15 17:00S 66°06' E 139°30'0 0.0 220 / 8981.6 -16.8-21.1-1.9
2014-Nov-15 15:00S 66°06' E 139°30'0 0.0 200 / 7982.9 -12.4-20.3-1.9
2014-Nov-15 14:00S 66°06' E 139°30'0 0.0 190 / 9983.2 -13.6-18.1-1.9
2014-Nov-15 12:00S 66°06' E 139°30'0 0.0 170 / 12984.0 -13.8-17.4-1.9
2014-Nov-15 11:00S 66°06' E 139°30'0 0.0 170 / 13984.4 -13.7-16.8-1.9
2014-Nov-15 09:00S 66°06' E 139°30'0 0.0 180 / 4984.6 -9.8-14.0-1.9
2014-Nov-15 08:00S 66°06' E 139°30'0 0.0 090 / 3984.8 -9.2-13.4-1.9
2014-Nov-15 06:00S 66°06' E 139°30'0 0.0 110 / 12984.8 -9.3-14.1-1.9
2014-Nov-15 05:00S 66°06' E 139°30'0 0.0 100 / 13984.8 -9.4-14.9-1.9
2014-Nov-15 03:00S 66°06' E 139°30'0 0.0 110 / 18985.5 -9.9-15.8-1.9
2014-Nov-15 02:00S 66°06' E 139°30'0 0.0 110 / 21985.8 -10.4-15.6-1.9
2014-Nov-15 00:00S 66°06' E 139°30'0 0.0 120 / 22986.2 -11.0-16.8-1.5
2014-Nov-14 21:00S 66°06' E 139°30'0 0.0 120 / 21986.5 -13.6-18.8-1.5
2014-Nov-14 20:00S 66°06' E 139°30'   110 / 23986.6 -14.1-19.2-1.5

Dump ship's entire track history